Time;durP1;ratioP1;P1;durP2;ratioP2;P2;SDS_P1;SDS_P2;PMS_P1;PMS_P2;Temp;Humidity;BMP_temperature;BMP_pressure;BME280_temperature;BME280_humidity;BME280_pressure;Samples;Min_cycle;Max_cycle;Signal;HPM_P1;HPM_P2
2021/12/05 00:22:23;;;;;;;9.45;6.53;;;;;;;-4.07;86.98;99586.72;6331114;22;20015;-73
2021/12/05 00:24:52;;;;;;;10.65;7.40;;;;;;;-4.05;87.08;99585.00;6280351;22;20033;-73
2021/12/05 00:27:23;;;;;;;9.27;7.85;;;;;;;-4.07;87.20;99590.97;6305105;22;20049;-71
2021/12/05 00:54:09;;;;;;;20.05;13.88;;;;;;;-4.04;88.82;99588.41;6283029;22;20014;-72
2021/12/05 00:57:05;;;;;;;22.90;14.60;;;;;;;-4.04;88.73;99579.09;6305175;22;20019;-72
2021/12/05 01:14:51;;;;;;;30.02;18.63;;;;;;;-4.03;89.54;99567.19;6332126;22;20023;-72
2021/12/05 01:17:22;;;;;;;32.42;19.52;;;;;;;-3.98;89.99;99573.13;6305066;22;20357;-74
2021/12/05 01:19:49;;;;;;;34.58;20.45;;;;;;;-3.99;90.26;99566.34;6305661;22;20019;-72
2021/12/05 01:22:17;;;;;;;27.92;20.70;;;;;;;-3.97;90.32;99562.09;6305042;22;20017;-74
2021/12/05 01:25:03;;;;;;;17.95;13.20;;;;;;;-3.95;90.49;99560.38;6279468;22;20022;-71
2021/12/05 01:27:58;;;;;;;24.65;18.50;;;;;;;-3.90;91.02;99566.31;6304836;22;20034;-71
2021/12/05 01:46:06;;;;;;;30.95;17.23;;;;;;;-3.75;90.23;99564.59;6304897;22;20100;-74
2021/12/05 02:39:29;;;;;;;11.38;8.20;;;;;;;-3.50;90.93;99559.44;6253751;22;20023;-72
2021/12/05 02:42:06;;;;;;;14.23;10.02;;;;;;;-3.45;90.81;99562.78;6304543;22;20457;-72
2021/12/05 02:44:33;;;;;;;18.23;13.15;;;;;;;-3.46;91.24;99561.94;6330259;22;20073;-71
2021/12/05 02:47:12;;;;;;;20.20;12.73;;;;;;;-3.44;90.75;99556.84;6331948;22;20492;-73
2021/12/05 02:49:40;;;;;;;24.63;15.27;;;;;;;-3.41;90.89;99562.78;6306363;22;20057;-72
2021/12/05 02:52:10;;;;;;;20.00;13.27;;;;;;;-3.38;91.22;99565.31;6306413;22;20349;-72
2021/12/05 02:54:41;;;;;;;19.42;12.95;;;;;;;-3.35;91.13;99570.41;6306214;22;20033;-73
2021/12/05 02:57:08;;;;;;;22.67;15.13;;;;;;;-3.31;90.83;99567.00;6332500;22;20025;-72
2021/12/05 03:02:09;;;;;;;27.15;16.05;;;;;;;-3.25;91.10;99566.13;6306407;22;20089;-72
2021/12/05 03:04:37;;;;;;;20.83;14.48;;;;;;;-3.26;90.81;99564.41;6307925;22;20407;-72
2021/12/05 03:07:06;;;;;;;21.85;14.50;;;;;;;-3.25;90.91;99566.97;6332633;22;20018;-74
2021/12/05 03:09:33;;;;;;;21.75;13.73;;;;;;;-3.26;90.75;99560.16;6309577;22;20444;-73
2021/12/05 03:12:00;;;;;;;28.83;17.83;;;;;;;-3.24;90.92;99552.53;6280802;22;20027;-73
2021/12/05 03:14:26;;;;;;;22.23;14.98;;;;;;;-3.27;91.07;99543.16;6281716;22;20018;-74
2021/12/05 03:16:53;;;;;;;19.85;12.88;;;;;;;-3.19;90.85;99553.34;6311422;22;20019;-73
2021/12/05 03:19:19;;;;;;;22.42;14.13;;;;;;;-3.20;90.84;99557.59;6336391;22;20407;-72
2021/12/05 03:21:46;;;;;;;22.60;15.57;;;;;;;-3.20;91.15;99552.47;6310344;22;20014;-73
2021/12/05 03:24:14;;;;;;;23.40;13.57;;;;;;;-3.21;91.21;99555.88;6333360;22;20014;-72
2021/12/05 03:26:44;;;;;;;23.13;14.93;;;;;;;-3.18;91.10;99553.34;6307018;22;20145;-73
2021/12/05 03:29:11;;;;;;;24.85;15.30;;;;;;;-3.13;91.03;99560.09;6333113;22;20479;-73
2021/12/05 03:31:38;;;;;;;16.75;11.63;;;;;;;-3.18;91.11;99558.44;6306780;22;20357;-73
2021/12/05 03:34:05;;;;;;;16.90;11.95;;;;;;;-3.17;91.00;99555.00;6307491;22;20026;-73
2021/12/05 03:36:33;;;;;;;17.40;11.27;;;;;;;-3.17;91.13;99559.25;6306438;22;20605;-72
2021/12/05 03:39:02;;;;;;;22.67;14.93;;;;;;;-3.18;91.33;99561.00;6307543;22;20029;-72
2021/12/05 03:41:29;;;;;;;27.45;14.02;;;;;;;-3.17;91.60;99567.78;6283052;22;20019;-73
2021/12/05 03:43:55;;;;;;;19.35;11.35;;;;;;;-3.17;91.50;99565.22;6334035;22;20021;-72
2021/12/05 03:46:24;;;;;;;25.05;15.18;;;;;;;-3.18;91.56;99572.91;6331923;22;20015;-73
2021/12/05 03:48:54;;;;;;;14.95;10.43;;;;;;;-3.19;91.31;99576.31;6307155;22;20073;-72
2021/12/05 03:51:21;;;;;;;23.95;13.23;;;;;;;-3.16;91.66;99581.38;6310595;22;20014;-71
2021/12/05 03:53:49;;;;;;;26.48;14.25;;;;;;;-3.15;91.50;99572.88;6310893;22;20019;-72
2021/12/05 03:56:17;;;;;;;21.80;13.95;;;;;;;-3.13;91.34;99572.84;6306122;22;20042;-73
2021/12/05 03:58:43;;;;;;;27.52;15.30;;;;;;;-3.11;91.59;99574.56;6281072;22;20414;-72
2021/12/05 04:01:10;;;;;;;27.05;14.68;;;;;;;-3.10;91.54;99578.81;6280357;22;20085;-73
2021/12/05 04:03:39;;;;;;;25.88;15.13;;;;;;;-3.10;91.36;99588.16;6280947;22;20030;-72
2021/12/05 04:06:07;;;;;;;23.20;13.63;;;;;;;-3.11;91.58;99587.34;6255214;22;20023;-71
2021/12/05 04:08:33;;;;;;;24.83;16.25;;;;;;;-3.09;91.63;99592.41;6331902;22;20027;-72
2021/12/05 04:11:03;;;;;;;35.05;16.75;;;;;;;-3.11;91.44;99591.59;6333395;22;20079;-71
2021/12/05 04:13:31;;;;;;;21.08;13.45;;;;;;;-3.11;91.46;99586.50;6305327;22;20026;-72
2021/12/05 04:15:57;;;;;;;18.70;11.13;;;;;;;-3.13;91.71;99583.06;6305843;22;20022;-74
2021/12/05 04:18:25;;;;;;;21.35;13.90;;;;;;;-3.13;92.00;99591.59;6279744;22;20021;-70
2021/12/05 04:20:51;;;;;;;13.85;9.35;;;;;;;-3.09;92.25;99592.41;6306156;22;20026;-72
2021/12/05 04:23:17;;;;;;;17.33;10.77;;;;;;;-3.08;91.93;99587.31;6305560;22;20533;-72
2021/12/05 04:25:47;;;;;;;8.68;6.90;;;;;;;-3.04;92.27;99581.31;6305922;22;20019;-71
2021/12/05 04:28:15;;;;;;;26.23;14.82;;;;;;;-3.00;92.26;99588.13;6305823;22;20560;-73
2021/12/05 04:30:40;;;;;;;26.65;16.88;;;;;;;-3.01;92.05;99590.69;6305444;22;20053;-72
2021/12/05 04:33:07;;;;;;;17.58;12.25;;;;;;;-2.99;92.33;99600.03;6254169;22;20038;-72
2021/12/05 04:35:33;;;;;;;31.05;18.95;;;;;;;-2.96;92.26;99599.16;6305417;22;20037;-72
2021/12/05 04:37:59;;;;;;;32.63;22.83;;;;;;;-2.98;92.27;99595.78;6333516;22;20018;-72
2021/12/05 04:40:27;;;;;;;20.17;11.80;;;;;;;-3.04;92.29;99585.59;6305381;22;20015;-71
2021/12/05 04:42:54;;;;;;;27.70;17.70;;;;;;;-2.98;92.70;99593.22;6306097;22;20072;-71
2021/12/05 04:45:23;;;;;;;37.42;18.13;;;;;;;-2.88;92.50;99600.81;6279889;22;20779;-72
2021/12/05 04:47:51;;;;;;;23.48;13.18;;;;;;;-2.84;92.16;99605.06;6254694;22;20022;-72
2021/12/05 04:50:19;;;;;;;34.22;18.15;;;;;;;-2.82;92.09;99605.06;6305164;22;20432;-73
2021/12/05 04:52:47;;;;;;;29.67;16.55;;;;;;;-2.82;92.04;99597.41;6279475;22;20022;-70
2021/12/05 04:55:14;;;;;;;28.10;16.20;;;;;;;-2.77;92.27;99608.44;6280141;22;20014;-72
2021/12/05 04:57:41;;;;;;;29.40;17.20;;;;;;;-2.81;91.83;99599.94;6332521;22;20022;-72
2021/12/05 05:00:12;;;;;;;31.83;17.60;;;;;;;-2.78;92.29;99609.31;6331486;22;20019;-72
2021/12/05 05:02:39;;;;;;;26.80;17.65;;;;;;;-2.76;91.98;99607.56;6279295;22;20665;-73
2021/12/05 05:05:05;;;;;;;27.92;17.95;;;;;;;-2.73;91.84;99608.41;6305471;22;20026;-72
2021/12/05 05:07:32;;;;;;;14.07;10.32;;;;;;;-2.67;92.00;99617.72;6332301;22;20015;-72
2021/12/05 05:10:07;;;;;;;28.63;17.25;;;;;;;-2.63;91.90;99616.88;6332984;22;20101;-72
2021/12/05 05:12:33;;;;;;;23.00;13.70;;;;;;;-2.61;91.68;99617.69;6332412;22;20026;-71
2021/12/05 05:15:00;;;;;;;21.63;13.68;;;;;;;-2.62;91.93;99623.69;6304970;22;20022;-72
2021/12/05 05:17:26;;;;;;;28.10;15.35;;;;;;;-2.60;91.98;99621.09;6304976;22;20026;-72
2021/12/05 05:19:58;;;;;;;29.52;17.63;;;;;;;-2.55;91.93;99629.59;6279537;22;20103;-73
2021/12/05 05:49:50;;;;;;;21.63;13.45;;;;;;;-2.35;91.29;99649.03;6332114;22;20022;-72
2021/12/05 05:51:59;;;;;;;29.10;16.05;;;;;;;-2.30;91.15;99649.03;6306474;22;20027;-72
2021/12/05 05:54:25;;;;;;;20.17;14.70;;;;;;;-2.27;90.91;99665.19;6332849;22;20365;-73
2021/12/05 05:56:57;;;;;;;21.10;13.40;;;;;;;-2.30;90.83;99662.66;6305445;22;20015;-73
2021/12/05 05:59:39;;;;;;;18.63;12.55;;;;;;;-2.32;90.48;99659.25;6255962;22;20453;-73
2021/12/05 06:04:34;;;;;;;28.98;15.25;;;;;;;-2.27;90.30;99667.75;6328344;22;20019;-75
2021/12/05 06:07:00;;;;;;;28.27;17.05;;;;;;;-2.28;90.70;99660.06;6278484;22;20025;-73
2021/12/05 06:09:26;;;;;;;13.30;10.68;;;;;;;-2.30;90.78;99657.56;6304867;22;20018;-74
2021/12/05 06:11:52;;;;;;;29.27;15.70;;;;;;;-2.25;90.43;99663.47;6305705;22;20025;-73
2021/12/05 06:14:18;;;;;;;21.33;13.63;;;;;;;-2.26;90.72;99666.88;6337793;22;20014;-73
2021/12/05 06:16:44;;;;;;;22.08;13.88;;;;;;;-2.25;90.81;99662.59;6339424;22;20426;-75
2021/12/05 06:19:10;;;;;;;18.38;13.23;;;;;;;-2.20;90.20;99671.97;6333928;22;20019;-73
2021/12/05 06:21:36;;;;;;;25.35;15.23;;;;;;;-2.21;90.44;99665.16;6253962;22;20014;-73
2021/12/05 06:24:03;;;;;;;20.88;14.52;;;;;;;-2.20;89.77;99660.88;6304936;22;20021;-73
2021/12/05 06:26:29;;;;;;;20.65;13.48;;;;;;;-2.17;90.13;99669.38;6330921;22;20076;-73
2021/12/05 06:29:44;;;;;;;20.75;12.23;;;;;;;-2.16;89.87;99678.72;6304150;22;20446;-74
2021/12/05 06:40:03;;;;;;;22.83;14.48;;;;;;;-2.14;90.01;99679.59;6340392;22;20403;-74
2021/12/05 06:47:58;;;;;;;23.23;15.48;;;;;;;-2.17;90.25;99671.94;6335833;22;20014;-72
2021/12/05 06:50:24;;;;;;;25.58;16.08;;;;;;;-2.16;89.96;99683.03;6304815;22;20018;-72
2021/12/05 06:52:51;;;;;;;24.25;15.70;;;;;;;-2.13;89.98;99683.81;6331832;22;20022;-74
2021/12/05 06:55:26;;;;;;;24.23;14.45;;;;;;;-2.14;89.99;99687.25;6309607;22;20042;-73
2021/12/05 06:58:22;;;;;;;19.30;12.75;;;;;;;-2.11;90.40;99696.59;6320273;22;20060;-74
2021/12/05 07:00:49;;;;;;;25.88;14.98;;;;;;;-2.26;90.08;99671.97;6302187;22;20023;-74
2021/12/05 07:03:15;;;;;;;25.83;15.73;;;;;;;-2.23;89.93;99677.09;6316218;22;20026;-74
2021/12/05 07:05:48;;;;;;;25.15;16.35;;;;;;;-2.20;90.11;99682.19;6336793;22;20015;-73
2021/12/05 07:08:16;;;;;;;31.85;16.33;;;;;;;-2.02;90.73;99717.00;6304868;22;20019;-73
2021/12/05 07:18:48;;;;;;;26.95;14.70;;;;;;;-2.02;90.77;99726.38;6333093;22;20063;-73
2021/12/05 07:42:05;;;;;;;20.35;12.68;;;;;;;-2.06;89.45;99688.91;6336485;22;20041;-72
2021/12/05 07:44:32;;;;;;;9.23;7.60;;;;;;;-1.79;89.37;99721.94;6312283;22;20014;-72
2021/12/05 07:46:58;;;;;;;21.77;14.43;;;;;;;-1.81;89.16;99723.69;6335473;22;20015;-73
2021/12/05 07:49:24;;;;;;;17.83;12.93;;;;;;;-1.81;89.08;99728.81;6307144;22;20361;-72
2021/12/05 07:51:51;;;;;;;14.40;10.85;;;;;;;-1.75;89.10;99727.03;6335287;22;20019;-73
2021/12/05 07:54:44;;;;;;;15.25;12.35;;;;;;;-1.75;89.04;99733.88;6307280;22;20022;-74
2021/12/05 07:57:23;;;;;;;10.48;8.10;;;;;;;-1.77;88.90;99733.91;6307083;22;20064;-73
2021/12/05 08:16:41;;;;;;;27.40;15.43;;;;;;;-1.44;88.08;99725.06;6332514;22;20019;-74
2021/12/05 08:19:07;;;;;;;21.65;14.70;;;;;;;-1.32;87.39;99729.25;6307191;22;20050;-73
2021/12/05 08:21:35;;;;;;;27.63;18.63;;;;;;;-1.18;87.14;99730.78;6332311;22;20063;-74
2021/12/05 08:24:11;;;;;;;18.17;12.70;;;;;;;-0.90;86.62;99738.22;6284674;22;20057;-74
2021/12/05 08:26:38;;;;;;;26.75;18.85;;;;;;;-0.53;84.80;99729.25;6279990;22;20164;-74
2021/12/05 08:29:12;;;;;;;20.80;14.52;;;;;;;-0.51;84.79;99732.63;6333998;22;20049;-73
2021/12/05 08:37:35;;;;;;;14.35;12.52;;;;;;;-0.56;83.76;99731.84;6306080;22;20403;-72
2021/12/05 10:03:00;;;;;;;17.70;12.45;;;;;;;-1.01;86.57;99750.31;6273862;22;20812;-73
2021/12/05 10:13:40;;;;;;;22.02;13.10;;;;;;;-0.97;86.53;99749.38;6307381;22;20019;-72
2021/12/05 10:35:21;;;;;;;14.88;11.27;;;;;;;-0.89;87.98;99755.28;6335532;22;20097;-73
2021/12/05 10:37:57;;;;;;;16.48;11.73;;;;;;;-0.94;88.00;99755.31;6293218;22;20018;-72
2021/12/05 10:40:43;;;;;;;17.23;13.07;;;;;;;-1.00;88.10;99749.41;6284180;22;20115;-74
2021/12/05 10:43:18;;;;;;;16.55;12.13;;;;;;;-1.00;88.84;99754.53;6286264;22;20026;-74
2021/12/05 10:45:58;;;;;;;18.05;12.45;;;;;;;-1.04;89.34;99748.59;6311053;22;20517;-74
2021/12/05 10:48:32;;;;;;;17.98;14.25;;;;;;;-1.19;89.11;99757.28;6337229;22;20026;-74
2021/12/05 10:51:02;;;;;;;17.52;11.43;;;;;;;-1.17;89.74;99758.09;6337194;22;20033;-73
2021/12/05 10:53:29;;;;;;;17.42;13.68;;;;;;;-1.19;89.59;99762.41;6310093;22;20092;-74
2021/12/05 10:56:05;;;;;;;18.05;13.13;;;;;;;-1.11;89.19;99757.19;6334942;22;20472;-74
2021/12/05 10:58:46;;;;;;;21.73;13.57;;;;;;;-1.17;89.22;99760.66;6334654;22;20045;-72
2021/12/05 11:01:12;;;;;;;;;;;;;;;-1.10;89.24;99764.03;6304801;22;20017;-73
2021/12/05 11:03:39;;;;;;;21.27;14.27;;;;;;;-1.02;89.07;99761.41;6330153;22;19914;-73
2021/12/05 11:06:18;;;;;;;21.27;14.70;;;;;;;-1.01;89.10;99757.97;6334304;22;20060;-72
2021/12/05 11:08:44;;;;;;;15.65;10.45;;;;;;;-0.96;89.14;99766.47;6306424;22;20025;-73
2021/12/05 11:11:15;;;;;;;18.05;13.45;;;;;;;-0.90;89.49;99766.38;6308239;22;20019;-75
2021/12/05 11:13:43;;;;;;;26.50;16.58;;;;;;;-0.95;89.11;99768.16;6334913;22;20472;-73
2021/12/05 11:16:38;;;;;;;20.63;13.68;;;;;;;-0.86;88.67;99763.78;6307721;22;20022;-72
2021/12/05 11:19:26;;;;;;;17.50;12.55;;;;;;;-0.89;88.80;99768.09;6334015;22;20048;-76
2021/12/05 11:21:56;;;;;;;18.33;13.93;;;;;;;-0.93;89.29;99771.53;6306961;22;20079;-73
2021/12/05 11:24:32;;;;;;;22.67;14.05;;;;;;;-1.02;89.59;99772.50;6301300;22;20015;-72
2021/12/05 11:27:19;;;;;;;16.77;11.98;;;;;;;-1.00;89.47;99778.44;6308511;22;20007;-72
2021/12/05 11:30:13;;;;;;;23.25;12.73;;;;;;;-1.01;90.17;99783.59;6334660;22;20019;-72
2021/12/05 11:32:44;;;;;;;18.30;12.95;;;;;;;-1.11;90.68;99786.22;6336159;22;20081;-73
2021/12/05 11:35:31;;;;;;;23.55;15.40;;;;;;;-1.19;90.98;99788.00;6336701;22;20038;-72
2021/12/05 11:38:09;;;;;;;18.80;14.38;;;;;;;-1.21;90.97;99787.16;6337712;22;20529;-73
2021/12/05 11:41:04;;;;;;;19.75;13.65;;;;;;;-1.24;91.34;99784.63;6308329;22;20121;-72
2021/12/05 11:43:37;;;;;;;24.05;15.10;;;;;;;-1.20;91.27;99794.00;6280637;22;20019;-72
2021/12/05 11:46:04;;;;;;;20.05;14.07;;;;;;;-1.23;91.28;99796.56;6306322;22;20091;-72
2021/12/05 11:48:35;;;;;;;15.65;12.68;;;;;;;-1.21;91.21;99796.56;6308449;22;20022;-73
2021/12/05 11:51:02;;;;;;;17.80;15.10;;;;;;;-1.24;91.47;99797.44;6309681;22;20019;-74
2021/12/05 11:53:42;;;;;;;17.95;14.32;;;;;;;-1.24;91.05;99800.00;6338029;22;20722;-74
2021/12/05 11:56:09;;;;;;;20.60;14.10;;;;;;;-1.26;91.41;99800.88;6338916;22;20014;-76
2021/12/05 11:58:35;;;;;;;19.10;13.45;;;;;;;-1.26;91.55;99804.28;6338284;22;20057;-75
2021/12/05 12:01:10;;;;;;;22.50;14.30;;;;;;;-1.25;90.75;99795.75;6312403;22;20014;-76
2021/12/05 12:03:38;;;;;;;13.93;11.68;;;;;;;-1.24;90.87;99797.44;6307918;22;20097;-75
2021/12/05 12:06:05;;;;;;;23.80;15.57;;;;;;;-1.16;90.67;99793.09;6307208;22;20011;-73
2021/12/05 12:08:31;;;;;;;24.75;15.25;;;;;;;-1.21;90.62;99789.72;6335467;22;20019;-76
2021/12/05 12:11:02;;;;;;;27.65;16.65;;;;;;;-1.19;90.15;99788.00;6334818;22;20595;-74
2021/12/05 12:13:34;;;;;;;22.02;16.13;;;;;;;-1.15;90.07;99796.53;6306713;22;20018;-73
2021/12/05 12:16:02;;;;;;;21.42;15.57;;;;;;;-1.21;89.45;99794.84;6301530;22;20026;-74
2021/12/05 12:18:32;;;;;;;19.60;15.05;;;;;;;-1.21;89.32;99797.41;6305422;22;20509;-74
2021/12/05 12:21:02;;;;;;;19.58;14.77;;;;;;;-1.17;89.55;99795.66;6302205;22;20023;-74
2021/12/05 12:23:44;;;;;;;22.80;14.52;;;;;;;-1.21;89.14;99796.56;6303529;22;20075;-73
2021/12/05 12:26:26;;;;;;;18.90;9.77;;;;;;;-1.20;89.47;99806.78;6303853;22;20023;-74
2021/12/05 12:28:56;;;;;;;13.73;11.05;;;;;;;-1.36;89.49;99784.75;6289970;22;20478;-73
2021/12/05 12:31:28;;;;;;;19.90;15.30;;;;;;;-1.23;89.18;99809.38;6302142;22;20015;-74
2021/12/05 12:33:55;;;;;;;25.10;16.52;;;;;;;-1.23;89.50;99813.66;6300545;22;20482;-73
2021/12/05 12:36:51;;;;;;;27.38;16.42;;;;;;;-1.24;89.46;99812.78;6274931;22;20061;-74
2021/12/05 12:39:17;;;;;;;20.10;15.13;;;;;;;-1.21;90.09;99812.75;6300532;22;20015;-73
2021/12/05 12:42:03;;;;;;;22.15;15.23;;;;;;;-1.24;90.52;99812.78;6301688;22;20015;-74
2021/12/05 12:44:29;;;;;;;20.00;14.85;;;;;;;-1.25;89.84;99807.69;6300621;22;20055;-73
2021/12/05 12:46:57;;;;;;;27.33;16.38;;;;;;;-1.25;90.32;99808.56;6302149;22;20067;-73
2021/12/05 12:49:29;;;;;;;22.50;14.38;;;;;;;-1.25;89.89;99806.00;6248672;22;20117;-73
2021/12/05 12:51:57;;;;;;;22.25;16.17;;;;;;;-1.26;89.77;99811.97;6276307;22;20026;-73
2021/12/05 12:54:26;;;;;;;22.27;15.48;;;;;;;-1.23;90.14;99809.38;6302969;22;20220;-73
2021/12/05 12:57:06;;;;;;;25.05;16.73;;;;;;;-1.24;90.24;99817.91;6303259;22;20061;-72
2021/12/05 12:59:38;;;;;;;26.40;16.88;;;;;;;-1.27;90.33;99817.09;6303128;22;20023;-73
2021/12/05 13:02:32;;;;;;;26.38;18.13;;;;;;;-1.31;90.45;99816.25;6303017;22;20145;-73
2021/12/05 13:05:19;;;;;;;30.75;18.42;;;;;;;-1.35;91.17;99827.41;6302482;22;20390;-73
2021/12/05 13:10:35;;;;;;;15.68;10.95;;;;;;;-1.45;91.81;99823.22;6275324;22;20366;-72
2021/12/05 13:13:16;;;;;;;16.10;10.95;;;;;;;-1.45;91.81;99825.78;6303461;22;20018;-72
2021/12/05 13:15:49;;;;;;;25.02;17.08;;;;;;;-1.50;92.26;99829.19;6328940;22;20083;-72
2021/12/05 13:18:23;;;;;;;27.60;16.58;;;;;;;-1.50;92.49;99836.88;6308247;22;20351;-72
2021/12/05 13:20:57;;;;;;;27.02;16.98;;;;;;;-1.54;92.50;99838.63;6306356;22;20018;-72
2021/12/05 13:23:36;;;;;;;24.38;15.77;;;;;;;-1.56;92.94;99835.22;6306451;22;20025;-72
2021/12/05 13:26:25;;;;;;;20.75;15.55;;;;;;;-1.59;92.84;99845.47;6333413;22;20056;-73
2021/12/05 13:28:53;;;;;;;25.42;13.07;;;;;;;-1.59;92.62;99842.91;6334172;22;20473;-72
2021/12/05 13:31:28;;;;;;;24.20;16.17;;;;;;;-1.61;92.76;99842.94;6334816;22;20042;-72
2021/12/05 13:34:34;;;;;;;24.00;14.43;;;;;;;-1.62;92.75;99843.78;6305385;22;20026;-72
2021/12/05 13:37:06;;;;;;;21.30;13.75;;;;;;;-1.62;93.24;99850.63;6237402;23;20027;-73
2021/12/05 13:39:41;;;;;;;15.15;11.05;;;;;;;-1.62;92.85;99855.72;6238452;23;20020;-72
2021/12/05 13:42:39;;;;;;;20.73;14.65;;;;;;;-1.58;92.69;99865.09;6267366;22;20019;-74
2021/12/05 13:45:10;;;;;;;24.05;15.45;;;;;;;-1.60;92.53;99854.84;6315687;22;20042;-73
2021/12/05 13:47:55;;;;;;;20.55;13.80;;;;;;;-1.57;92.36;99853.97;6333629;22;20291;-73
2021/12/05 13:50:37;;;;;;;24.25;13.75;;;;;;;-1.56;91.97;99853.13;6334871;22;20026;-73
2021/12/05 13:53:03;;;;;;;23.42;16.25;;;;;;;-1.57;91.99;99856.53;6334686;22;20100;-73
2021/12/05 13:55:46;;;;;;;23.95;15.45;;;;;;;-1.56;91.83;99860.81;6336574;22;20106;-73
2021/12/05 13:58:22;;;;;;;27.20;16.65;;;;;;;-1.56;91.52;99853.13;6339444;22;20037;-74
2021/12/05 14:01:17;;;;;;;24.40;16.40;;;;;;;-1.57;91.54;99849.72;6335395;22;20049;-73
2021/12/05 14:03:54;;;;;;;23.42;16.35;;;;;;;-1.58;91.46;99852.31;6339263;22;20018;-74
2021/12/05 14:06:42;;;;;;;26.25;16.13;;;;;;;-1.56;91.22;99865.94;6309304;22;20105;-72
2021/12/05 14:09:16;;;;;;;23.40;14.52;;;;;;;-1.55;91.07;99867.63;6333824;22;20062;-73
2021/12/05 14:11:48;;;;;;;25.67;15.63;;;;;;;-1.58;91.46;99872.78;6306374;22;20022;-74
2021/12/05 14:14:15;;;;;;;26.10;15.45;;;;;;;-1.55;91.38;99879.59;6306289;22;20089;-73
2021/12/05 14:16:42;;;;;;;24.75;16.52;;;;;;;-1.56;91.25;99878.72;6306639;22;20074;-73
2021/12/05 14:19:20;;;;;;;25.23;17.17;;;;;;;-1.56;90.78;99876.16;6307142;22;20507;-74
2021/12/05 14:21:49;;;;;;;26.85;17.73;;;;;;;-1.57;91.27;99869.34;6257976;22;20021;-75
2021/12/05 14:24:17;;;;;;;34.85;19.55;;;;;;;-1.56;90.43;99878.72;6333768;22;20018;-74
2021/12/05 14:26:43;;;;;;;19.17;12.65;;;;;;;-1.55;90.98;99875.31;6305730;22;20041;-74
2021/12/05 14:29:14;;;;;;;25.33;16.27;;;;;;;-1.56;91.19;99878.72;6333614;22;20014;-74
2021/12/05 14:31:49;;;;;;;28.52;14.80;;;;;;;-1.58;91.02;99883.88;6333417;22;20472;-74
2021/12/05 14:34:16;;;;;;;25.85;15.73;;;;;;;-1.58;90.70;99883.00;6305254;22;20021;-73
2021/12/05 14:36:52;;;;;;;27.48;16.00;;;;;;;-1.59;90.67;99878.75;6278882;22;20026;-75
2021/12/05 14:39:27;;;;;;;27.40;17.27;;;;;;;-1.56;90.48;99886.41;6307261;22;20044;-73
2021/12/05 14:41:59;;;;;;;24.63;18.30;;;;;;;-1.54;90.95;99884.72;6333724;22;20094;-75
2021/12/05 14:44:25;;;;;;;27.13;17.27;;;;;;;-1.53;90.63;99885.53;6305747;22;20365;-74
2021/12/05 14:46:53;;;;;;;32.53;20.30;;;;;;;-1.54;90.23;99882.16;6307743;22;20019;-74
2021/12/05 14:49:23;;;;;;;26.15;16.70;;;;;;;-1.56;90.34;99886.41;6283636;22;20023;-73
2021/12/05 14:52:36;;;;;;;25.67;17.85;;;;;;;-1.54;90.43;99888.97;6312149;22;20113;-73
2021/12/05 14:55:04;;;;;;;22.77;15.70;;;;;;;-1.56;90.37;99891.53;6307871;22;20027;-73
2021/12/05 14:57:39;;;;;;;28.20;17.45;;;;;;;-1.56;90.13;99896.63;6335960;22;20089;-73
2021/12/05 15:00:18;;;;;;;26.70;16.38;;;;;;;-1.53;90.52;99906.00;6335380;22;20419;-72
2021/12/05 15:02:44;;;;;;;24.10;16.65;;;;;;;-1.61;90.89;99906.06;6309661;22;20015;-73
2021/12/05 15:05:15;;;;;;;21.65;14.20;;;;;;;-1.61;90.89;99898.38;6282149;22;20019;-74
2021/12/05 15:07:50;;;;;;;26.67;18.25;;;;;;;-1.59;91.00;99901.78;6308198;22;20022;-73
2021/12/05 15:11:22;;;;;;;16.15;12.50;;;;;;;-1.60;91.15;99915.41;6310846;22;20025;-74
2021/12/05 15:13:44;;;;;;;26.95;17.50;;;;;;;-1.61;90.65;99908.63;6316814;22;20027;-75
2021/12/05 15:16:14;;;;;;;17.80;12.90;;;;;;;-1.77;90.60;99897.63;6337757;22;20354;-73
2021/12/05 15:18:56;;;;;;;25.30;18.73;;;;;;;-1.69;90.41;99905.25;6309358;22;20014;-76
2021/12/05 15:21:27;;;;;;;15.98;10.85;;;;;;;-1.64;90.25;99914.59;6311927;22;20021;-74
2021/12/05 15:24:16;;;;;;;19.60;15.07;;;;;;;-1.79;89.69;99893.34;6311473;22;20014;-75
2021/12/05 15:26:44;;;;;;;19.35;14.25;;;;;;;-1.69;89.14;99913.78;6283768;22;20098;-74
2021/12/05 15:29:12;;;;;;;18.42;13.02;;;;;;;-1.68;89.26;99904.38;6308778;22;20022;-74
2021/12/05 15:31:44;;;;;;;13.63;11.10;;;;;;;-1.67;89.70;99908.66;6336316;22;20019;-74
2021/12/05 15:34:39;;;;;;;16.02;11.02;;;;;;;-1.70;89.76;99909.50;6336117;22;20022;-76
2021/12/05 15:37:31;;;;;;;18.10;13.75;;;;;;;-1.76;89.14;99914.66;6332248;22;20026;-75
2021/12/05 15:40:11;;;;;;;18.40;11.95;;;;;;;-1.82;89.23;99911.25;6241536;22;20027;-76
2021/12/05 15:42:50;;;;;;;18.38;11.55;;;;;;;-1.83;89.35;99907.03;6336693;22;20021;-76
2021/12/05 15:45:30;;;;;;;16.60;13.23;;;;;;;-1.82;89.40;99914.69;6312276;22;20156;-74
2021/12/05 15:48:26;;;;;;;14.77;12.95;;;;;;;-1.77;89.11;99912.97;6259150;22;20053;-76
2021/12/05 15:51:37;;;;;;;15.07;12.43;;;;;;;-1.87;89.22;99902.78;6333835;22;20034;-73
2021/12/05 15:54:06;;;;;;;18.23;14.27;;;;;;;-1.75;88.69;99923.19;6334415;22;20093;-74
2021/12/05 15:56:33;;;;;;;15.30;11.75;;;;;;;-1.74;88.46;99925.75;6257260;22;20019;-74
2021/12/05 15:59:08;;;;;;;18.00;13.23;;;;;;;-1.76;89.14;99919.75;6280884;22;20018;-74
2021/12/05 16:01:37;;;;;;;18.67;16.55;;;;;;;-1.77;88.97;99923.19;6309313;22;20037;-74
2021/12/05 16:04:04;;;;;;;17.23;15.40;;;;;;;-1.75;88.45;99931.72;6308306;22;20022;-74
2021/12/05 16:06:37;;;;;;;18.77;10.68;;;;;;;-1.74;89.24;99938.53;6308012;22;20015;-73
2021/12/05 16:09:35;;;;;;;17.73;14.52;;;;;;;-1.73;88.98;99936.81;6281987;22;20015;-74
2021/12/05 16:12:13;;;;;;;16.88;14.35;;;;;;;-1.74;89.13;99930.00;6335138;22;20023;-74
2021/12/05 16:14:46;;;;;;;20.02;13.23;;;;;;;-1.73;88.90;99936.81;6276739;22;20027;-74
2021/12/05 16:17:18;;;;;;;19.05;14.60;;;;;;;-1.74;88.88;99935.97;6275719;22;20102;-75
2021/12/05 16:20:40;;;;;;;19.65;11.93;;;;;;;-1.70;88.49;99940.19;6277696;22;20022;-74
2021/12/05 16:23:10;;;;;;;15.85;10.38;;;;;;;-1.74;88.94;99940.25;6216174;23;20080;-74
2021/12/05 16:25:49;;;;;;;18.35;13.65;;;;;;;-1.72;88.84;99947.03;6304081;22;20458;-73
2021/12/05 16:32:56;;;;;;;11.98;10.18;;;;;;;-1.72;88.77;99958.97;6251041;22;20023;-77
2021/12/05 16:35:46;;;;;;;17.23;11.35;;;;;;;-1.81;88.96;99947.09;6328499;22;20069;-73
2021/12/05 16:38:30;;;;;;;21.30;13.75;;;;;;;-1.77;89.05;99959.03;6276970;22;20023;-76
2021/12/05 16:41:10;;;;;;;16.40;12.60;;;;;;;-1.74;89.34;99969.25;6250363;22;20026;-75
2021/12/05 16:44:15;;;;;;;13.15;11.02;;;;;;;-1.79;89.52;99964.97;6277651;22;20019;-78
2021/12/05 16:46:55;;;;;;;20.40;12.98;;;;;;;-1.85;89.40;99960.75;6304502;22;20019;-75
2021/12/05 16:49:32;;;;;;;27.27;17.00;;;;;;;-1.82;89.82;99959.88;6275606;22;20513;-74
2021/12/05 16:51:59;;;;;;;27.55;18.23;;;;;;;-1.79;89.74;99970.94;6300494;22;20053;-78
2021/12/05 16:54:29;;;;;;;16.92;11.85;;;;;;;-1.78;89.69;99974.38;6275603;22;20011;-76
2021/12/05 16:56:59;;;;;;;28.05;18.67;;;;;;;-1.78;90.06;99988.00;6302230;22;20037;-75
2021/12/05 16:59:47;;;;;;;24.70;18.58;;;;;;;-1.78;89.81;99982.03;6300955;22;20015;-77
2021/12/05 17:02:21;;;;;;;22.98;15.35;;;;;;;-1.78;90.19;99988.00;6302661;22;20046;-75
2021/12/05 17:05:04;;;;;;;22.52;13.73;;;;;;;-1.77;89.54;99988.88;6302234;22;20069;-75
2021/12/05 17:07:50;;;;;;;26.77;17.08;;;;;;;-1.73;89.73;99985.41;6301706;22;20073;-75
2021/12/05 17:10:16;;;;;;;16.48;12.73;;;;;;;-1.72;89.55;99997.34;6275788;22;20142;-75
2021/12/05 17:12:43;;;;;;;26.10;15.02;;;;;;;-1.74;89.97;99988.84;6302070;22;20134;-74
2021/12/05 17:15:20;;;;;;;19.80;12.60;;;;;;;-1.72;89.70;99992.25;6300869;22;20023;-75
2021/12/05 17:17:47;;;;;;;21.98;13.63;;;;;;;-1.75;89.48;99988.00;6302353;22;20465;-75
2021/12/05 17:20:25;;;;;;;25.77;15.85;;;;;;;-1.75;89.67;99992.25;6301909;22;20026;-76
2021/12/05 17:22:53;;;;;;;20.42;14.70;;;;;;;-1.75;89.70;99987.13;6301214;22;20019;-74
2021/12/05 17:25:50;;;;;;;24.55;14.05;;;;;;;-1.76;90.11;99998.22;6300583;22;20075;-73
2021/12/05 17:28:33;;;;;;;20.05;13.25;;;;;;;-1.78;89.69;99999.94;6263321;22;20046;-76